Pulaski, Pennsylvania
Current Conditions -  °F | °C
As of 6:51 PM on Sunday 21 Dec 2014 (Local Time) from KYNG Reporting Station
Overcast Overcast  
Wind Chill: 29°   Ceiling: 2400
Heat Index: 29°   Visibility: 10mi
Dew Point: 21°   Wind: 3mph
Humidity: 72%   Direction: 110°ESE
Pressure: 30.23"   Gusts: NA
Location:  41.11°N, 80.43°W
Report Text: KYNG 212351Z 11003KT 10SM OVC024 M02/M06 A3023 RMK AO2 SLP252 T10171061 11006 21017 50000
Loading
Personal Weather Stations






























Interactive Weather Map New forecast layout! Learn more

10-Day Weather Forecast

Advertisements
Track Severe Weather on mobile